Time;durP1;ratioP1;P1;durP2;ratioP2;P2;SDS_P1;SDS_P2;PMS_P1;PMS_P2;Temp;Humidity;BMP_temperature;BMP_pressure;BME280_temperature;BME280_humidity;BME280_pressure;Samples;Min_cycle;Max_cycle;Signal;HPM_P1;HPM_P2
2024/03/07 00:01:41;;;;;;;82.47;39.50;;;4.00;99.90;;;;;;6216040;22;20015;-82
2024/03/07 00:04:07;;;;;;;84.40;40.22;;;3.90;99.90;;;;;;6214727;22;20038;-81
2024/03/07 00:06:33;;;;;;;97.05;41.60;;;3.90;99.90;;;;;;6241311;22;20370;-81
2024/03/07 00:08:58;;;;;;;87.03;39.17;;;3.80;99.90;;;;;;6216151;22;20086;-81
2024/03/07 00:11:24;;;;;;;92.15;41.15;;;3.80;99.90;;;;;;6240973;22;20077;-82
2024/03/07 00:13:49;;;;;;;79.60;38.70;;;3.90;99.90;;;;;;6215591;22;20089;-81
2024/03/07 00:16:15;;;;;;;88.55;40.35;;;3.90;99.90;;;;;;6215027;22;20008;-81
2024/03/07 00:18:40;;;;;;;91.18;40.05;;;3.80;99.90;;;;;;6214339;22;20518;-81
2024/03/07 00:21:06;;;;;;;84.45;38.67;;;3.80;99.90;;;;;;6189792;22;20008;-80
2024/03/07 00:23:31;;;;;;;96.88;40.10;;;4.00;99.90;;;;;;6190037;22;20034;-81
2024/03/07 00:25:57;;;;;;;87.95;41.92;;;4.10;99.90;;;;;;6215488;22;20011;-81
2024/03/07 00:28:23;;;;;;;86.00;39.05;;;4.10;99.90;;;;;;6240975;22;20003;-82
2024/03/07 00:30:48;;;;;;;85.82;38.13;;;4.10;99.90;;;;;;6240396;22;20012;-81
2024/03/07 00:33:14;;;;;;;90.65;39.15;;;4.00;99.90;;;;;;6215108;22;20605;-81
2024/03/07 00:35:40;;;;;;;84.97;37.78;;;4.00;99.90;;;;;;6190783;22;20326;-81
2024/03/07 00:38:06;;;;;;;80.00;36.88;;;3.90;99.90;;;;;;6268556;22;20027;-80
2024/03/07 00:40:32;;;;;;;73.38;35.60;;;3.90;99.90;;;;;;6215669;22;20562;-81
2024/03/07 00:42:59;;;;;;;82.15;35.10;;;3.80;99.90;;;;;;6240756;22;20086;-80
2024/03/07 00:45:24;;;;;;;80.88;37.03;;;3.80;99.90;;;;;;6215247;22;20646;-81
2024/03/07 00:47:50;;;;;;;52.40;24.88;;;3.70;99.90;;;;;;6214307;22;20095;-81
2024/03/07 00:50:15;;;;;;;84.63;37.60;;;3.70;99.90;;;;;;6240605;22;20042;-80
2024/03/07 00:52:41;;;;;;;86.43;37.13;;;3.70;99.90;;;;;;6215155;22;20015;-81
2024/03/07 00:55:10;;;;;;;100.63;40.60;;;3.70;99.90;;;;;;6214504;22;20008;-80
2024/03/07 00:57:36;;;;;;;92.28;39.65;;;3.70;99.90;;;;;;6215988;22;20016;-80
2024/03/07 01:00:02;;;;;;;93.95;39.45;;;3.70;99.90;;;;;;6267347;22;20014;-80
2024/03/07 01:02:28;;;;;;;82.60;37.00;;;3.60;99.90;;;;;;6240802;22;20069;-80
2024/03/07 01:04:54;;;;;;;84.57;38.60;;;3.50;99.90;;;;;;6214454;22;20015;-80
2024/03/07 01:07:21;;;;;;;89.72;38.33;;;3.50;99.90;;;;;;6240086;22;20079;-79
2024/03/07 01:09:46;;;;;;;83.90;35.10;;;3.40;99.90;;;;;;6239910;22;20065;-80
2024/03/07 01:12:12;;;;;;;54.53;25.70;;;3.40;99.90;;;;;;6215131;22;20011;-80
2024/03/07 01:14:38;;;;;;;84.68;36.53;;;3.40;99.90;;;;;;6187602;22;20088;-79
2024/03/07 01:17:06;;;;;;;80.47;35.35;;;3.40;99.90;;;;;;6240914;22;20020;-80
2024/03/07 01:19:32;;;;;;;79.50;36.38;;;3.40;99.90;;;;;;6241630;22;20020;-80
2024/03/07 01:21:59;;;;;;;71.78;32.58;;;3.30;99.90;;;;;;6215280;22;20023;-80
2024/03/07 01:24:24;;;;;;;69.55;32.90;;;3.20;99.90;;;;;;6192375;22;20402;-80
2024/03/07 01:26:50;;;;;;;70.78;32.40;;;2.90;99.90;;;;;;6242328;22;20090;-80
2024/03/07 01:29:16;;;;;;;75.22;34.83;;;2.90;99.90;;;;;;6241338;22;20497;-79
2024/03/07 01:31:41;;;;;;;73.95;33.95;;;3.10;99.90;;;;;;6192538;22;20032;-79
2024/03/07 01:34:07;;;;;;;76.45;32.05;;;3.00;99.90;;;;;;6217237;22;20103;-80
2024/03/07 01:36:32;;;;;;;87.90;32.85;;;2.90;99.90;;;;;;6212912;22;20068;-79
2024/03/07 01:38:58;;;;;;;85.38;35.78;;;2.90;99.90;;;;;;6213974;22;20012;-80
2024/03/07 01:41:24;;;;;;;69.32;30.80;;;3.00;99.90;;;;;;6238796;22;20084;-80
2024/03/07 01:43:49;;;;;;;81.53;35.17;;;3.10;99.90;;;;;;6190144;22;20012;-80
2024/03/07 01:46:19;;;;;;;74.72;33.72;;;3.10;99.90;;;;;;6214957;22;20362;-80
2024/03/07 01:48:46;;;;;;;72.15;33.40;;;3.10;99.90;;;;;;6191080;22;20430;-79
2024/03/07 01:51:12;;;;;;;87.00;36.35;;;3.20;99.90;;;;;;6241136;22;20003;-80
2024/03/07 01:53:37;;;;;;;74.93;34.55;;;3.10;99.90;;;;;;6202391;22;20401;-79
2024/03/07 01:56:03;;;;;;;75.85;33.80;;;3.20;99.90;;;;;;6204832;23;20092;-80
2024/03/07 01:58:29;;;;;;;79.40;35.05;;;3.10;99.90;;;;;;6209492;23;20066;-80
2024/03/07 02:00:55;;;;;;;74.68;34.80;;;3.10;99.90;;;;;;6233350;22;20348;-80
2024/03/07 02:03:20;;;;;;;102.70;39.63;;;3.20;99.90;;;;;;6214056;22;20008;-80
2024/03/07 02:05:46;;;;;;;100.57;37.58;;;3.20;99.90;;;;;;6240713;22;20043;-80
2024/03/07 02:08:11;;;;;;;131.68;41.13;;;3.20;99.90;;;;;;6267457;22;20360;-79
2024/03/07 02:10:38;;;;;;;149.25;43.70;;;3.20;99.90;;;;;;6216607;22;20016;-80
2024/03/07 02:13:03;;;;;;;116.40;41.83;;;3.30;99.90;;;;;;6215083;22;20008;-80
2024/03/07 02:15:29;;;;;;;316.35;47.72;;;3.30;99.90;;;;;;6189229;22;20038;-80
2024/03/07 02:17:55;;;;;;;341.88;48.30;;;3.40;99.90;;;;;;6215252;22;20030;-80
2024/03/07 02:20:20;;;;;;;336.58;47.28;;;3.40;99.90;;;;;;6215828;22;20090;-79
2024/03/07 02:22:46;;;;;;;346.77;47.55;;;3.40;99.90;;;;;;6240336;22;20449;-80
2024/03/07 02:25:12;;;;;;;375.50;48.42;;;3.40;99.90;;;;;;6240087;22;20019;-80
2024/03/07 02:27:38;;;;;;;249.73;41.67;;;3.40;99.90;;;;;;6216300;22;20019;-80
2024/03/07 02:30:05;;;;;;;288.27;40.97;;;3.40;99.90;;;;;;6190103;22;20049;-80
2024/03/07 02:32:31;;;;;;;314.63;41.15;;;3.40;99.90;;;;;;6215364;22;20015;-80
2024/03/07 02:34:56;;;;;;;394.52;48.72;;;3.40;99.90;;;;;;6215404;22;20042;-80
2024/03/07 02:37:22;;;;;;;319.42;43.80;;;3.50;99.90;;;;;;6214867;22;20031;-80
2024/03/07 02:39:48;;;;;;;378.38;46.35;;;3.50;99.90;;;;;;6214599;22;20023;-80
2024/03/07 02:42:13;;;;;;;414.55;46.00;;;3.60;99.90;;;;;;6215131;22;20019;-80
2024/03/07 02:44:39;;;;;;;336.48;41.88;;;3.60;99.90;;;;;;6240463;22;20008;-80
2024/03/07 02:47:06;;;;;;;403.90;50.25;;;3.60;99.90;;;;;;6185872;23;20015;-80
2024/03/07 02:49:32;;;;;;;335.17;43.22;;;3.60;99.90;;;;;;6207196;23;20032;-80
2024/03/07 02:51:57;;;;;;;337.40;44.75;;;3.70;99.90;;;;;;6184307;23;20074;-80
2024/03/07 02:54:23;;;;;;;366.77;46.28;;;3.70;99.90;;;;;;6212106;22;20046;-80
2024/03/07 02:56:48;;;;;;;370.08;45.83;;;3.70;99.90;;;;;;6214561;22;20020;-80
2024/03/07 02:59:14;;;;;;;366.30;45.00;;;3.70;99.90;;;;;;6214325;22;20438;-80
2024/03/07 03:01:39;;;;;;;365.98;49.38;;;3.70;99.90;;;;;;6239773;22;20018;-80
2024/03/07 03:04:05;;;;;;;279.00;46.20;;;3.80;99.90;;;;;;6212493;22;20114;-80
2024/03/07 03:06:31;;;;;;;241.57;40.03;;;3.70;99.90;;;;;;6238138;22;20408;-80
2024/03/07 03:08:57;;;;;;;357.35;46.55;;;3.70;99.90;;;;;;6238528;22;20095;-80
2024/03/07 03:11:22;;;;;;;271.10;41.67;;;3.80;99.90;;;;;;6239540;22;20457;-80
2024/03/07 03:13:48;;;;;;;322.98;44.47;;;3.80;99.90;;;;;;6236587;22;20012;-80
2024/03/07 03:16:14;;;;;;;229.10;39.63;;;3.80;99.90;;;;;;6238540;22;20023;-80
2024/03/07 03:18:39;;;;;;;392.10;48.22;;;3.80;99.90;;;;;;6237573;22;20015;-80
2024/03/07 03:21:05;;;;;;;303.25;43.03;;;3.80;99.90;;;;;;6212526;22;20010;-80
2024/03/07 03:23:30;;;;;;;376.40;45.22;;;3.80;99.90;;;;;;6236623;22;20023;-80
2024/03/07 03:25:56;;;;;;;273.83;41.60;;;3.80;99.90;;;;;;6238318;22;20061;-80
2024/03/07 03:28:22;;;;;;;288.00;41.78;;;3.80;99.90;;;;;;6210416;22;20043;-80
2024/03/07 03:30:48;;;;;;;283.73;43.38;;;3.80;99.90;;;;;;6213272;22;20019;-80
2024/03/07 03:33:15;;;;;;;173.38;34.40;;;3.80;99.90;;;;;;6212432;22;20429;-80
2024/03/07 03:35:40;;;;;;;162.52;34.17;;;3.90;99.90;;;;;;6214531;22;20007;-80
2024/03/07 03:38:06;;;;;;;82.78;27.05;;;3.90;99.90;;;;;;6213546;22;20115;-80
2024/03/07 03:40:32;;;;;;;271.33;38.72;;;4.00;99.90;;;;;;6237891;22;20405;-80
2024/03/07 03:42:57;;;;;;;314.67;42.25;;;4.00;99.90;;;;;;6238359;22;20054;-81
2024/03/07 03:45:25;;;;;;;324.88;45.25;;;4.00;99.90;;;;;;6237804;22;20035;-81
2024/03/07 03:47:50;;;;;;;273.30;37.88;;;4.00;99.90;;;;;;6238172;22;20472;-80
2024/03/07 03:50:17;;;;;;;311.58;42.72;;;4.00;99.90;;;;;;6238729;22;20011;-81
2024/03/07 03:52:43;;;;;;;250.48;38.53;;;4.00;99.90;;;;;;6237860;22;20003;-80
2024/03/07 03:55:09;;;;;;;299.73;40.25;;;3.90;99.90;;;;;;6213245;22;20746;-80
2024/03/07 03:57:35;;;;;;;115.32;30.80;;;4.00;99.90;;;;;;6182599;23;20589;-81
2024/03/07 04:00:00;;;;;;;85.47;26.13;;;4.00;99.90;;;;;;6181429;23;20007;-80
2024/03/07 04:02:26;;;;;;;409.92;47.63;;;4.10;99.90;;;;;;6182757;23;20011;-80
2024/03/07 04:04:52;;;;;;;173.48;33.85;;;4.00;99.90;;;;;;6207714;23;20015;-80
2024/03/07 04:07:18;;;;;;;202.57;36.53;;;4.10;99.90;;;;;;6207891;23;20443;-80
2024/03/07 04:09:44;;;;;;;369.10;48.00;;;4.10;99.90;;;;;;6177981;23;20095;-80
2024/03/07 04:12:13;;;;;;;256.20;37.40;;;4.10;99.90;;;;;;6190421;23;20039;-80
2024/03/07 04:14:42;;;;;;;383.67;47.90;;;4.00;99.90;;;;;;6215484;23;20016;-80
2024/03/07 04:17:08;;;;;;;206.77;38.15;;;4.00;99.90;;;;;;6207264;23;20012;-80
2024/03/07 04:19:35;;;;;;;174.18;33.50;;;4.00;99.90;;;;;;6181712;23;20016;-81
2024/03/07 04:22:01;;;;;;;354.48;41.47;;;4.00;99.90;;;;;;6208874;23;20323;-81
2024/03/07 04:24:28;;;;;;;450.90;48.90;;;3.90;99.90;;;;;;6180783;23;20008;-81
2024/03/07 04:26:53;;;;;;;368.85;44.63;;;3.90;99.90;;;;;;6209084;23;20319;-81
2024/03/07 04:29:19;;;;;;;416.63;42.58;;;3.80;99.90;;;;;;6183775;23;20019;-81
2024/03/07 04:31:45;;;;;;;276.70;37.80;;;3.80;99.90;;;;;;6203839;23;20497;-81
2024/03/07 04:34:10;;;;;;;338.17;43.15;;;3.80;99.90;;;;;;6209452;23;20012;-81
2024/03/07 04:36:36;;;;;;;466.60;45.42;;;3.80;99.90;;;;;;6207810;23;20061;-81
2024/03/07 04:39:04;;;;;;;383.83;43.38;;;3.80;99.90;;;;;;6208586;23;20004;-81
2024/03/07 04:41:29;;;;;;;365.35;41.75;;;3.70;99.90;;;;;;6181882;23;20058;-80
2024/03/07 04:43:55;;;;;;;419.30;46.58;;;3.70;99.90;;;;;;6184281;23;20016;-80
2024/03/07 04:46:21;;;;;;;413.20;42.22;;;3.70;99.90;;;;;;6185248;23;20004;-80
2024/03/07 04:48:46;;;;;;;523.50;46.70;;;3.70;99.90;;;;;;6204985;23;20027;-80
2024/03/07 04:51:12;;;;;;;410.13;42.05;;;3.70;99.90;;;;;;6187030;23;20084;-80
2024/03/07 04:53:41;;;;;;;397.95;41.85;;;3.70;99.90;;;;;;6192991;23;20005;-80
2024/03/07 04:56:09;;;;;;;393.75;41.55;;;3.60;99.90;;;;;;6241568;22;20500;-80
2024/03/07 04:58:35;;;;;;;348.52;37.40;;;3.60;99.90;;;;;;6241804;22;20020;-80
2024/03/07 05:01:02;;;;;;;406.95;44.70;;;3.50;99.90;;;;;;6240183;22;20441;-80
2024/03/07 05:03:27;;;;;;;388.13;42.08;;;3.50;99.90;;;;;;6238748;22;20038;-80
2024/03/07 05:05:53;;;;;;;360.30;39.63;;;3.50;99.90;;;;;;6240134;22;20345;-80
2024/03/07 05:08:18;;;;;;;309.17;38.30;;;3.40;99.90;;;;;;6239971;22;20008;-80
2024/03/07 05:10:44;;;;;;;346.40;41.22;;;3.40;99.90;;;;;;6215407;22;20019;-80
2024/03/07 05:13:10;;;;;;;326.58;41.08;;;3.40;99.90;;;;;;6215280;22;20011;-80
2024/03/07 05:15:36;;;;;;;295.45;41.03;;;3.30;99.90;;;;;;6240339;22;20018;-79
2024/03/07 05:18:02;;;;;;;331.08;42.95;;;3.30;99.90;;;;;;6214597;22;20031;-79
2024/03/07 05:20:28;;;;;;;193.57;37.17;;;3.20;99.90;;;;;;6217000;22;20065;-80
2024/03/07 05:22:54;;;;;;;396.45;44.08;;;3.20;99.90;;;;;;6243958;22;20041;-80
2024/03/07 05:25:21;;;;;;;274.77;36.38;;;3.20;99.90;;;;;;6191339;23;20091;-81
2024/03/07 05:27:50;;;;;;;122.97;29.52;;;3.20;99.90;;;;;;6186963;23;20090;-81
2024/03/07 05:30:15;;;;;;;340.65;40.20;;;3.20;99.90;;;;;;6213830;23;20087;-81
2024/03/07 05:32:41;;;;;;;277.27;36.67;;;3.10;99.90;;;;;;6211315;23;20031;-81
2024/03/07 05:35:07;;;;;;;107.82;29.23;;;3.10;99.90;;;;;;6208757;23;20062;-81
2024/03/07 05:37:34;;;;;;;329.80;38.75;;;3.10;99.90;;;;;;6211941;23;20099;-81
2024/03/07 05:39:59;;;;;;;95.78;31.77;;;3.20;99.90;;;;;;6186427;23;20012;-81
2024/03/07 05:42:25;;;;;;;255.05;35.95;;;3.10;99.90;;;;;;6211683;23;20509;-81
2024/03/07 05:44:51;;;;;;;446.85;43.85;;;3.00;99.90;;;;;;6206689;23;20035;-81
2024/03/07 05:47:17;;;;;;;251.80;36.58;;;3.00;99.90;;;;;;6210885;23;20016;-81
2024/03/07 05:49:42;;;;;;;414.23;41.08;;;3.00;99.90;;;;;;6195675;22;20019;-81
2024/03/07 05:52:08;;;;;;;458.90;42.63;;;2.90;99.90;;;;;;6191409;22;20046;-81
2024/03/07 05:54:34;;;;;;;493.30;44.58;;;2.90;99.90;;;;;;6211447;23;20044;-81
2024/03/07 05:57:00;;;;;;;296.42;38.53;;;2.80;99.90;;;;;;6216710;23;20008;-81
2024/03/07 05:59:30;;;;;;;217.10;36.92;;;2.80;99.90;;;;;;6214258;22;20376;-81
2024/03/07 06:01:56;;;;;;;262.27;39.60;;;2.80;99.90;;;;;;6242948;22;20441;-81
2024/03/07 06:04:22;;;;;;;164.93;36.17;;;2.70;99.90;;;;;;6242089;22;20073;-81
2024/03/07 06:06:48;;;;;;;314.63;38.03;;;2.70;99.90;;;;;;6241740;22;20341;-82
2024/03/07 06:09:14;;;;;;;257.90;38.83;;;2.70;99.90;;;;;;6238419;22;20004;-80
2024/03/07 06:11:42;;;;;;;259.50;40.35;;;2.70;99.90;;;;;;6243540;22;20011;-80
2024/03/07 06:14:08;;;;;;;203.60;37.97;;;2.60;99.90;;;;;;6218620;22;21554;-80
2024/03/07 06:16:38;;;;;;;148.55;35.55;;;2.60;99.90;;;;;;6241673;22;20012;-80
2024/03/07 06:19:04;;;;;;;149.85;35.60;;;2.60;99.90;;;;;;6241424;22;20441;-81
2024/03/07 06:21:32;;;;;;;120.63;33.97;;;2.60;99.90;;;;;;6240882;22;20016;-80
2024/03/07 06:24:01;;;;;;;72.15;32.92;;;2.60;99.90;;;;;;6234066;22;20023;-80
2024/03/07 06:26:37;;;;;;;156.35;37.00;;;2.50;99.90;;;;;;6241853;22;20011;-81
2024/03/07 06:29:08;;;;;;;108.55;34.25;;;2.50;99.90;;;;;;6214688;22;20019;-80
2024/03/07 06:31:34;;;;;;;73.95;34.80;;;2.50;99.90;;;;;;6210129;22;20043;-79
2024/03/07 06:34:00;;;;;;;61.95;31.15;;;2.40;99.90;;;;;;6235155;22;20425;-82
2024/03/07 06:36:25;;;;;;;88.82;35.17;;;2.40;99.90;;;;;;6226173;22;20143;-81
2024/03/07 06:38:52;;;;;;;65.10;33.15;;;2.40;99.90;;;;;;6238391;22;20084;-81
2024/03/07 06:41:19;;;;;;;70.35;36.22;;;2.40;99.90;;;;;;6200878;22;20015;-80
2024/03/07 06:43:44;;;;;;;70.25;34.95;;;2.40;99.90;;;;;;6238260;22;20011;-81
2024/03/07 06:46:10;;;;;;;84.35;36.67;;;2.50;99.90;;;;;;6183578;23;20640;-81
2024/03/07 06:48:36;;;;;;;131.82;36.03;;;2.50;99.90;;;;;;6212811;23;20347;-81
2024/03/07 06:51:01;;;;;;;89.25;34.20;;;2.50;99.90;;;;;;6210625;22;20034;-81
2024/03/07 06:53:28;;;;;;;90.20;35.72;;;2.50;99.90;;;;;;6213584;22;20015;-81
2024/03/07 06:55:55;;;;;;;121.82;35.05;;;2.60;99.90;;;;;;6239675;22;20011;-81
2024/03/07 06:58:23;;;;;;;73.40;32.85;;;2.60;99.90;;;;;;6239242;22;20012;-80
2024/03/07 07:00:51;;;;;;;82.28;37.35;;;2.60;99.90;;;;;;6148807;23;20091;-81
2024/03/07 07:03:19;;;;;;;118.43;37.30;;;2.60;99.90;;;;;;6180936;22;20442;-82
2024/03/07 07:05:45;;;;;;;106.28;36.05;;;2.60;99.90;;;;;;6184145;22;20008;-81
2024/03/07 07:08:10;;;;;;;75.22;35.83;;;2.70;99.90;;;;;;6236980;22;20994;-81
2024/03/07 07:10:36;;;;;;;70.60;36.35;;;2.70;99.90;;;;;;6209799;22;20007;-81
2024/03/07 07:13:04;;;;;;;72.95;36.33;;;2.70;99.90;;;;;;6213217;22;20019;-81
2024/03/07 07:15:31;;;;;;;68.95;35.22;;;2.70;99.90;;;;;;6212552;22;20479;-82
2024/03/07 07:17:57;;;;;;;67.53;35.97;;;2.80;99.90;;;;;;6239950;22;20015;-81
2024/03/07 07:20:23;;;;;;;68.45;34.58;;;2.70;99.90;;;;;;6188543;22;20376;-81
2024/03/07 07:22:49;;;;;;;69.53;35.58;;;2.70;99.90;;;;;;6237089;22;20330;-81
2024/03/07 07:25:15;;;;;;;66.28;35.55;;;2.70;99.90;;;;;;6184939;22;20008;-81
2024/03/07 07:27:45;;;;;;;67.63;34.50;;;2.70;99.90;;;;;;6213407;22;20504;-81
2024/03/07 07:30:14;;;;;;;75.13;36.65;;;2.70;99.90;;;;;;6213614;22;20015;-81
2024/03/07 07:32:40;;;;;;;72.60;37.97;;;2.80;99.90;;;;;;6212201;22;20341;-80
2024/03/07 07:35:12;;;;;;;63.78;32.55;;;2.80;99.90;;;;;;6184213;22;20016;-82
2024/03/07 07:37:45;;;;;;;71.68;35.47;;;2.80;99.90;;;;;;6239791;22;20846;-82
2024/03/07 07:40:18;;;;;;;67.82;34.97;;;2.90;99.90;;;;;;6238413;22;20004;-83
2024/03/07 07:42:43;;;;;;;66.43;32.05;;;2.90;99.90;;;;;;6227417;22;20016;-82
2024/03/07 07:45:12;;;;;;;68.72;35.58;;;3.00;99.90;;;;;;6213909;22;20019;-81
2024/03/07 07:47:58;;;;;;;74.32;36.40;;;2.90;99.90;;;;;;6213851;22;20015;-81
2024/03/07 07:50:24;;;;;;;70.07;33.35;;;2.90;99.90;;;;;;6236844;22;20019;-82
2024/03/07 07:52:51;;;;;;;73.95;35.55;;;3.00;99.90;;;;;;6234197;22;20396;-81
2024/03/07 07:55:43;;;;;;;75.03;35.90;;;3.00;99.90;;;;;;6207593;22;20043;-81
2024/03/07 07:58:11;;;;;;;77.68;41.88;;;3.10;99.90;;;;;;6189524;23;20850;-82
2024/03/07 08:00:36;;;;;;;73.75;37.83;;;3.10;99.90;;;;;;6168422;23;20365;-81
2024/03/07 08:03:03;;;;;;;74.93;35.78;;;3.10;99.90;;;;;;6234573;23;20035;-82
2024/03/07 08:05:29;;;;;;;74.28;37.58;;;3.20;99.90;;;;;;6175540;23;20015;-82
2024/03/07 08:07:57;;;;;;;76.32;39.28;;;3.30;99.90;;;;;;6209043;23;20476;-81
2024/03/07 08:10:25;;;;;;;75.00;36.70;;;3.30;99.90;;;;;;6235139;22;20012;-82
2024/03/07 08:12:53;;;;;;;74.80;39.00;;;3.50;99.90;;;;;;6240291;22;20506;-82
2024/03/07 08:15:19;;;;;;;73.82;37.17;;;3.40;99.90;;;;;;6265101;22;20015;-82
2024/03/07 08:17:46;;;;;;;71.95;36.47;;;3.60;99.90;;;;;;6213219;22;20477;-82
2024/03/07 08:20:17;;;;;;;69.00;35.22;;;3.70;99.90;;;;;;6198953;22;20503;-82
2024/03/07 08:22:43;;;;;;;71.07;37.30;;;3.70;99.90;;;;;;6238737;22;20015;-82
2024/03/07 08:25:10;;;;;;;69.65;35.78;;;3.80;99.90;;;;;;6213721;22;20358;-82
2024/03/07 08:27:37;;;;;;;72.07;35.00;;;3.90;99.90;;;;;;6213417;22;20416;-81
2024/03/07 08:30:05;;;;;;;70.45;35.03;;;4.00;99.90;;;;;;6188703;22;20004;-82
2024/03/07 08:32:37;;;;;;;72.55;35.75;;;4.00;99.90;;;;;;6188678;22;20039;-82
2024/03/07 08:35:08;;;;;;;75.03;37.58;;;3.90;99.90;;;;;;6214746;22;20019;-82
2024/03/07 08:37:35;;;;;;;63.55;31.38;;;4.00;99.90;;;;;;6187859;22;20357;-82
2024/03/07 08:40:04;;;;;;;71.78;37.30;;;4.10;99.90;;;;;;6234065;22;20127;-82
2024/03/07 08:42:33;;;;;;;68.82;33.35;;;4.30;99.90;;;;;;6238315;22;20073;-82
2024/03/07 08:45:04;;;;;;;66.10;33.63;;;4.40;99.90;;;;;;6212625;22;20016;-82
2024/03/07 08:47:33;;;;;;;66.45;34.53;;;4.70;99.90;;;;;;6212452;22;20047;-82
2024/03/07 08:49:59;;;;;;;56.33;29.17;;;4.80;99.90;;;;;;6182198;22;20019;-82
2024/03/07 08:52:25;;;;;;;59.67;31.00;;;4.60;99.90;;;;;;6238770;22;20037;-82
2024/03/07 08:54:51;;;;;;;55.92;29.65;;;4.90;99.90;;;;;;6202469;22;20392;-82
2024/03/07 08:57:18;;;;;;;69.22;33.55;;;5.00;99.90;;;;;;6180427;22;20030;-82
2024/03/07 08:59:43;;;;;;;68.72;34.67;;;5.10;99.90;;;;;;6206073;22;20016;-82
2024/03/07 09:02:12;;;;;;;64.20;34.45;;;5.10;99.90;;;;;;6198277;22;20118;-80
2024/03/07 09:04:38;;;;;;;73.53;37.17;;;5.20;99.90;;;;;;6210355;22;20014;-80
2024/03/07 09:07:06;;;;;;;67.70;33.78;;;5.20;99.90;;;;;;6177204;22;20016;-80
2024/03/07 09:09:33;;;;;;;70.55;37.05;;;5.40;99.90;;;;;;6213630;22;20078;-80
2024/03/07 09:12:01;;;;;;;70.97;36.58;;;5.50;99.90;;;;;;6187450;22;20008;-80
2024/03/07 09:14:29;;;;;;;70.13;33.20;;;5.60;99.90;;;;;;6238964;22;20008;-80
2024/03/07 09:16:55;;;;;;;73.28;36.22;;;5.90;99.90;;;;;;6238854;22;20008;-80
2024/03/07 09:19:23;;;;;;;63.00;31.52;;;5.90;99.90;;;;;;6212693;22;20441;-80
2024/03/07 09:21:51;;;;;;;76.13;37.10;;;6.10;99.90;;;;;;6214493;22;20011;-82
2024/03/07 09:24:16;;;;;;;72.55;36.70;;;6.20;99.90;;;;;;6212549;22;20172;-83
2024/03/07 09:26:42;;;;;;;75.68;38.70;;;6.30;99.90;;;;;;6236558;22;20099;-81
2024/03/07 09:29:07;;;;;;;70.55;35.55;;;6.50;99.90;;;;;;6237566;22;20007;-83
2024/03/07 09:31:40;;;;;;;70.55;35.17;;;6.70;99.90;;;;;;6212916;22;20011;-83
2024/03/07 09:34:05;;;;;;;59.15;32.08;;;6.80;99.90;;;;;;6237720;22;20393;-83
2024/03/07 09:36:31;;;;;;;61.08;29.42;;;7.00;99.90;;;;;;6238462;22;20016;-80
2024/03/07 09:39:02;;;;;;;57.17;26.60;;;7.10;99.90;;;;;;6177077;22;20087;-80
2024/03/07 09:41:27;;;;;;;59.10;29.88;;;7.30;99.90;;;;;;6239319;22;20441;-80
2024/03/07 09:43:55;;;;;;;56.95;29.92;;;7.40;99.90;;;;;;6230213;22;20012;-80
2024/03/07 09:46:23;;;;;;;49.92;26.95;;;7.60;99.90;;;;;;6213450;22;20034;-80
2024/03/07 09:48:50;;;;;;;41.22;24.30;;;7.70;99.90;;;;;;6237860;22;20051;-80
2024/03/07 09:51:17;;;;;;;41.22;23.38;;;7.90;99.90;;;;;;6214509;22;20016;-80
2024/03/07 09:53:45;;;;;;;34.85;20.70;;;8.10;99.90;;;;;;6214440;22;20098;-80
2024/03/07 09:56:13;;;;;;;38.83;21.77;;;8.20;99.90;;;;;;6186757;22;20468;-80
2024/03/07 09:58:40;;;;;;;32.17;19.88;;;8.30;99.90;;;;;;6216117;22;20023;-80
2024/03/07 10:01:09;;;;;;;33.45;20.48;;;8.40;99.90;;;;;;6242128;22;20032;-80
2024/03/07 10:03:35;;;;;;;35.03;20.55;;;8.50;99.90;;;;;;6192934;22;20011;-80
2024/03/07 10:06:01;;;;;;;35.03;21.63;;;8.50;99.90;;;;;;6191931;22;20063;-80
2024/03/07 10:08:26;;;;;;;33.78;19.60;;;8.70;99.90;;;;;;6219154;22;20019;-80
2024/03/07 10:10:52;;;;;;;34.78;21.13;;;8.70;99.90;;;;;;6193609;22;20007;-80
2024/03/07 10:13:18;;;;;;;39.95;22.05;;;8.70;99.90;;;;;;6217974;22;20019;-80
2024/03/07 10:15:43;;;;;;;32.25;19.17;;;9.00;99.90;;;;;;6192842;22;20350;-80
2024/03/07 10:18:13;;;;;;;30.20;18.90;;;9.00;99.90;;;;;;6192740;22;20012;-81
2024/03/07 10:20:39;;;;;;;30.52;18.73;;;9.20;99.90;;;;;;6193999;22;20734;-80
2024/03/07 10:23:10;;;;;;;28.20;17.65;;;9.30;99.90;;;;;;6189647;22;20072;-80
2024/03/07 10:25:37;;;;;;;33.95;19.42;;;9.50;99.90;;;;;;6216505;22;20030;-80
2024/03/07 10:28:03;;;;;;;31.45;18.83;;;9.60;99.90;;;;;;6191052;22;20020;-80
2024/03/07 10:30:29;;;;;;;31.85;19.52;;;9.70;99.90;;;;;;6217474;22;20020;-80
2024/03/07 10:32:58;;;;;;;29.23;17.20;;;9.80;99.90;;;;;;6190048;22;20066;-81
2024/03/07 10:35:28;;;;;;;29.45;18.77;;;9.90;99.90;;;;;;6191127;22;20433;-80
2024/03/07 10:37:54;;;;;;;28.10;17.83;;;10.00;99.90;;;;;;6191197;22;20290;-81
2024/03/07 10:40:22;;;;;;;27.45;17.55;;;10.10;99.90;;;;;;6239824;22;20014;-80
2024/03/07 10:42:51;;;;;;;33.50;18.80;;;10.10;99.90;;;;;;6191410;22;20012;-80
2024/03/07 10:45:18;;;;;;;30.58;19.52;;;10.30;99.90;;;;;;6214621;22;20015;-80
2024/03/07 10:47:45;;;;;;;31.73;18.23;;;10.50;99.90;;;;;;6220478;22;20388;-81
2024/03/07 10:50:15;;;;;;;30.90;18.23;;;10.50;99.90;;;;;;6195637;22;20069;-80
2024/03/07 10:52:45;;;;;;;26.50;17.95;;;10.70;99.90;;;;;;6273240;22;20091;-80
2024/03/07 10:55:24;;;;;;;26.08;17.55;;;10.80;99.90;;;;;;6219886;22;20014;-80
2024/03/07 10:57:53;;;;;;;27.77;18.02;;;10.90;99.90;;;;;;6244829;22;20091;-80
2024/03/07 11:03:20;;;;;;;28.85;18.23;;;10.80;99.90;;;;;;6186074;23;20344;-80
2024/03/07 11:05:46;;;;;;;30.25;18.23;;;10.70;99.90;;;;;;6221135;23;20070;-81
2024/03/07 11:08:11;;;;;;;30.77;18.98;;;10.50;99.90;;;;;;6214190;23;20342;-81
2024/03/07 11:10:39;;;;;;;28.52;20.05;;;10.50;99.90;;;;;;6210437;23;20019;-80
2024/03/07 11:13:12;;;;;;;31.90;19.65;;;10.30;99.90;;;;;;6189266;23;20020;-81
2024/03/07 11:15:39;;;;;;;27.20;19.30;;;10.20;99.90;;;;;;6172056;22;20414;-81
2024/03/07 11:18:05;;;;;;;27.65;18.67;;;10.00;99.90;;;;;;6218228;22;20094;-80
2024/03/07 11:20:37;;;;;;;28.45;17.10;;;9.90;99.90;;;;;;6244966;22;20046;-80
2024/03/07 11:23:38;;;;;;;27.85;18.77;;;9.80;99.90;;;;;;6218737;22;20383;-80
2024/03/07 11:26:10;;;;;;;30.42;18.60;;;9.80;99.90;;;;;;6219474;22;20015;-81
2024/03/07 11:28:39;;;;;;;30.35;19.35;;;9.70;99.90;;;;;;6193611;22;20546;-80
2024/03/07 11:31:11;;;;;;;29.00;18.65;;;9.70;99.90;;;;;;6218629;22;20015;-81
2024/03/07 11:33:40;;;;;;;29.50;18.83;;;9.70;99.90;;;;;;6218433;22;20069;-80
2024/03/07 11:36:11;;;;;;;26.77;18.85;;;9.60;99.90;;;;;;6192859;22;20014;-81
2024/03/07 11:38:38;;;;;;;28.83;19.25;;;9.60;99.90;;;;;;6191029;22;20015;-81
2024/03/07 11:41:05;;;;;;;27.40;19.92;;;9.80;99.90;;;;;;6235257;22;20016;-83
2024/03/07 11:43:31;;;;;;;30.90;18.83;;;9.50;99.90;;;;;;6214230;22;20323;-87
2024/03/07 11:45:57;;;;;;;28.00;16.95;;;9.40;99.90;;;;;;6214050;22;20012;-88
2024/03/07 11:48:23;;;;;;;29.23;19.95;;;9.50;99.90;;;;;;6213106;22;20465;-82
2024/03/07 11:50:50;;;;;;;30.00;19.25;;;9.40;99.90;;;;;;6212736;22;20035;-89
2024/03/07 11:53:16;;;;;;;28.60;19.23;;;9.50;99.90;;;;;;6213062;22;20015;-84
2024/03/07 11:55:43;;;;;;;28.75;17.92;;;9.50;99.90;;;;;;6212645;22;20038;-87
2024/03/07 11:58:21;;;;;;;26.10;17.02;;;9.40;99.90;;;;;;6211769;22;20020;-86
2024/03/07 12:00:47;;;;;;;30.15;18.80;;;9.80;99.90;;;;;;6215388;22;20023;-85
2024/03/07 12:03:21;;;;;;;28.23;19.08;;;9.60;99.90;;;;;;6188380;22;20519;-87
2024/03/07 12:05:47;;;;;;;24.65;18.17;;;9.50;99.90;;;;;;6191854;22;20016;-88
2024/03/07 12:08:12;;;;;;;27.17;18.05;;;9.50;99.90;;;;;;6214178;22;20269;-86
2024/03/07 12:10:39;;;;;;;26.50;18.73;;;9.60;99.90;;;;;;6241031;22;20012;-85
2024/03/07 12:13:11;;;;;;;26.33;17.20;;;9.70;99.90;;;;;;6190739;22;20015;-84
2024/03/07 12:15:38;;;;;;;27.38;19.15;;;9.70;99.90;;;;;;6192163;22;20051;-91
2024/03/07 12:18:08;;;;;;;28.00;18.77;;;9.70;99.90;;;;;;6219346;22;20034;-85
2024/03/07 12:20:35;;;;;;;28.02;18.30;;;9.60;99.90;;;;;;6194400;22;20457;-89
2024/03/07 12:23:02;;;;;;;25.92;17.52;;;9.60;99.90;;;;;;6193979;22;20063;-89
2024/03/07 12:25:29;;;;;;;30.25;18.73;;;10.30;99.90;;;;;;6218276;22;20620;-91
2024/03/07 12:28:10;;;;;;;26.85;18.95;;;10.00;99.90;;;;;;6217983;22;21255;-87
2024/03/07 12:30:45;;;;;;;26.98;19.55;;;10.00;99.90;;;;;;6193773;22;20007;-89
2024/03/07 12:33:13;;;;;;;27.33;20.00;;;9.90;99.90;;;;;;6219403;22;20011;-88
2024/03/07 12:35:41;;;;;;;27.80;19.00;;;9.80;99.90;;;;;;6190255;22;20011;-88